createdAt,value
2022-11-20T00:05:03.991Z,8.50
2022-11-20T00:11:05.549Z,7.95
2022-11-20T00:17:07.007Z,8.73
2022-11-20T00:23:08.465Z,8.10
2022-11-20T00:29:10.658Z,7.32
2022-11-20T00:35:12.144Z,8.17
2022-11-20T00:41:14.968Z,8.00
2022-11-20T00:47:16.518Z,8.07
2022-11-20T00:53:18.061Z,8.20
2022-11-20T00:59:19.978Z,8.40
2022-11-20T01:05:21.633Z,7.30
2022-11-20T01:11:24.850Z,7.53
2022-11-20T01:17:26.294Z,7.80
2022-11-20T01:23:27.790Z,7.97
2022-11-20T01:29:29.332Z,7.72
2022-11-20T01:35:31.391Z,8.20
2022-11-20T01:41:52.516Z,7.95
2022-11-20T01:47:53.998Z,7.93
2022-11-20T01:53:56.367Z,7.38
2022-11-20T02:00:00.210Z,7.47
2022-11-20T02:06:27.833Z,6.97
2022-11-20T02:12:48.195Z,8.40
2022-11-20T02:18:50.017Z,7.30
2022-11-20T02:24:52.026Z,7.03
2022-11-20T02:30:53.496Z,7.43
2022-11-20T02:36:55.589Z,6.60
2022-11-20T02:42:57.375Z,8.05
2022-11-20T02:48:58.844Z,7.20
2022-11-20T02:55:00.323Z,7.97
2022-11-20T03:01:01.860Z,7.43
2022-11-20T03:07:03.722Z,8.60
2022-11-20T03:13:05.192Z,7.70
2022-11-20T03:19:06.666Z,8.90
2022-11-20T03:25:08.262Z,9.25
2022-11-20T03:31:10.961Z,8.38
2022-11-20T03:37:12.396Z,8.60
2022-11-20T03:43:13.857Z,8.07
2022-11-20T03:49:15.330Z,9.40
2022-11-20T03:55:16.798Z,8.82
2022-11-20T04:01:23.343Z,9.00
2022-11-20T04:07:24.894Z,8.80
2022-11-20T04:13:26.368Z,9.68
2022-11-20T04:19:27.951Z,10.80
2022-11-20T04:25:29.445Z,9.20
2022-11-20T04:31:32.266Z,9.98
2022-11-20T04:37:34.699Z,9.33
2022-11-20T04:43:36.262Z,9.52
2022-11-20T04:49:37.787Z,8.80
2022-11-20T04:55:39.269Z,8.52
2022-11-20T05:01:40.751Z,9.80
2022-11-20T05:07:42.334Z,9.90
2022-11-20T05:13:43.859Z,8.77
2022-11-20T05:19:48.385Z,9.83
2022-11-20T05:25:58.668Z,9.10
2022-11-20T05:32:00.754Z,8.45
2022-11-20T05:38:02.207Z,9.13
2022-11-20T05:44:04.087Z,9.30
2022-11-20T05:50:05.828Z,8.83
2022-11-20T05:56:11.625Z,9.40
2022-11-20T06:02:13.147Z,7.97
2022-11-20T06:08:14.936Z,10.23
2022-11-20T06:14:16.412Z,9.23
2022-11-20T06:20:17.878Z,8.50
2022-11-20T06:26:20.519Z,8.07
2022-11-20T06:32:23.054Z,8.65
2022-11-20T06:38:25.074Z,8.50
2022-11-20T06:44:26.898Z,9.35
2022-11-20T06:50:28.373Z,8.67
2022-11-20T06:56:29.913Z,9.73
2022-11-20T07:02:31.459Z,9.27
2022-11-20T07:08:33.162Z,8.77
2022-11-20T07:14:34.618Z,8.52
2022-11-20T07:20:36.102Z,9.93
2022-11-20T07:26:37.565Z,9.50
2022-11-20T07:32:39.073Z,9.52
2022-11-20T07:38:40.660Z,9.07
2022-11-20T07:44:42.113Z,8.52
2022-11-20T07:50:43.569Z,9.53
2022-11-20T07:56:45.037Z,9.80
2022-11-20T08:02:46.487Z,9.00
2022-11-20T08:08:47.932Z,9.40
2022-11-20T08:14:49.388Z,9.15
2022-11-20T08:20:50.858Z,9.40
2022-11-20T08:26:52.372Z,9.32
2022-11-20T08:32:54.478Z,9.25
2022-11-20T08:38:56.403Z,8.17
2022-11-20T08:44:57.871Z,9.35
2022-11-20T08:51:00.450Z,9.00
2022-11-20T08:57:02.450Z,8.07
2022-11-20T09:03:03.969Z,9.48
2022-11-20T09:09:18.615Z,9.20
2022-11-20T09:15:20.264Z,8.38
2022-11-20T09:21:21.763Z,7.27
2022-11-20T09:27:23.484Z,8.43
2022-11-20T09:33:24.942Z,8.10
2022-11-20T09:39:26.505Z,7.50
2022-11-20T09:45:46.952Z,7.28
2022-11-20T09:51:59.074Z,7.13
2022-11-20T09:58:00.642Z,8.13
2022-11-20T10:04:07.249Z,8.52
2022-11-20T10:10:20.225Z,8.13
2022-11-20T10:16:21.723Z,9.48
2022-11-20T10:22:23.178Z,10.07
2022-11-20T10:28:29.803Z,9.00
2022-11-20T10:34:35.929Z,9.25
2022-11-20T10:40:39.470Z,9.07
2022-11-20T10:46:43.937Z,9.00
2022-11-20T10:53:09.755Z,8.77
2022-11-20T10:59:30.108Z,7.88
2022-11-20T11:05:40.998Z,9.13
2022-11-20T11:11:42.451Z,8.30
2022-11-20T11:17:48.001Z,7.07
2022-11-20T11:24:13.447Z,6.97
2022-11-20T11:30:20.863Z,6.88
2022-11-20T11:36:25.623Z,5.47
2022-11-20T11:42:29.027Z,5.67
2022-11-20T11:48:30.489Z,6.28
2022-11-20T11:54:50.437Z,5.40
2022-11-20T12:01:15.100Z,4.78
2022-11-20T12:07:46.482Z,4.97
2022-11-20T12:13:48.709Z,5.03
2022-11-20T12:19:50.175Z,4.90
2022-11-20T12:25:53.006Z,5.90
2022-11-20T12:32:05.425Z,5.68
2022-11-20T12:38:13.166Z,6.03
2022-11-20T12:44:48.784Z,5.03
2022-11-20T12:51:15.403Z,5.15
2022-11-20T12:57:31.252Z,4.57
2022-11-20T13:03:43.782Z,5.65
2022-11-20T13:09:49.512Z,6.32
2022-11-20T13:16:01.661Z,7.30
2022-11-20T13:22:03.376Z,6.13
2022-11-20T13:28:06.403Z,6.93
2022-11-20T13:34:08.158Z,6.50
2022-11-20T13:40:09.716Z,5.93
2022-11-20T13:46:11.415Z,5.90
2022-11-20T13:52:36.522Z,5.78
2022-11-20T13:59:01.197Z,5.73
2022-11-20T14:05:06.662Z,5.72
2022-11-20T14:11:18.464Z,5.30
2022-11-20T14:17:21.605Z,5.00
2022-11-20T14:23:29.934Z,4.93
2022-11-20T14:29:36.550Z,5.40
2022-11-20T14:35:41.434Z,5.35
2022-11-20T14:41:50.845Z,5.10
2022-11-20T14:47:53.272Z,5.33
2022-11-20T14:53:54.810Z,6.28
2022-11-20T15:00:06.671Z,5.60
2022-11-20T15:06:11.153Z,5.05
2022-11-20T15:12:18.434Z,5.65
2022-11-20T15:18:30.707Z,5.80
2022-11-20T15:24:32.288Z,6.03
2022-11-20T15:30:33.810Z,6.20
2022-11-20T15:36:35.419Z,6.88
2022-11-20T15:42:37.539Z,6.68
2022-11-20T15:48:47.357Z,6.10
2022-11-20T15:54:49.453Z,6.45
2022-11-20T16:00:51.413Z,5.80
2022-11-20T16:06:54.391Z,6.25
2022-11-20T16:13:14.476Z,6.18
2022-11-20T16:19:16.572Z,6.23
2022-11-20T16:25:18.209Z,6.22
2022-11-20T16:31:20.452Z,6.80
2022-11-20T16:37:21.973Z,7.82
2022-11-20T16:43:23.802Z,7.72
2022-11-20T16:49:26.393Z,7.73
2022-11-20T16:55:28.108Z,7.45
2022-11-20T17:01:30.022Z,8.00
2022-11-20T17:07:32.622Z,8.55
2022-11-20T17:13:39.574Z,8.40
2022-11-20T17:19:41.638Z,8.03
2022-11-20T17:25:43.362Z,8.40
2022-11-20T17:31:45.544Z,8.93
2022-11-20T17:37:47.381Z,8.80
2022-11-20T17:43:50.122Z,8.88
2022-11-20T17:49:51.915Z,9.23
2022-11-20T17:56:15.504Z,9.52
2022-11-20T18:02:17.049Z,9.43
2022-11-20T18:08:18.533Z,9.00
2022-11-20T18:14:26.483Z,7.72
2022-11-20T18:20:31.084Z,8.23
2022-11-20T18:26:34.236Z,8.68
2022-11-20T18:32:36.061Z,8.10
2022-11-20T18:38:40.682Z,9.75
2022-11-20T18:44:51.360Z,8.95
2022-11-20T18:50:53.130Z,8.83
2022-11-20T18:56:54.897Z,8.63
2022-11-20T19:02:57.765Z,8.77
2022-11-20T19:08:59.888Z,9.13
2022-11-20T19:15:01.462Z,8.55
2022-11-20T19:21:09.636Z,9.57
2022-11-20T19:27:11.254Z,9.82
2022-11-20T19:33:12.824Z,8.67
2022-11-20T19:39:14.685Z,9.40
2022-11-20T19:45:16.293Z,9.13
2022-11-20T19:51:19.570Z,8.30
2022-11-20T19:57:21.284Z,9.60
2022-11-20T20:03:23.331Z,9.47
2022-11-20T20:09:26.933Z,10.07
2022-11-20T20:15:28.674Z,10.18
2022-11-20T20:21:31.046Z,10.27
2022-11-20T20:27:32.617Z,9.68
2022-11-20T20:33:35.313Z,10.00
2022-11-20T20:39:36.981Z,10.45
2022-11-20T20:45:44.493Z,10.23
2022-11-20T20:51:46.037Z,11.10
2022-11-20T20:57:47.767Z,11.27
2022-11-20T21:03:49.270Z,10.77
2022-11-20T21:09:51.347Z,11.57
2022-11-20T21:15:52.963Z,10.68
2022-11-20T21:22:00.576Z,10.90
2022-11-20T21:28:02.162Z,11.00
2022-11-20T21:34:03.861Z,10.70
2022-11-20T21:40:05.824Z,10.63
2022-11-20T21:46:08.708Z,10.18
2022-11-20T21:52:10.252Z,9.97
2022-11-20T21:58:11.719Z,10.85
2022-11-20T22:04:13.603Z,12.30
2022-11-20T22:10:18.502Z,11.02
2022-11-20T22:16:20.535Z,11.57
2022-11-20T22:22:21.974Z,11.37
2022-11-20T22:28:23.446Z,10.65
2022-11-20T22:34:25.185Z,10.33
2022-11-20T22:40:26.886Z,10.00
2022-11-20T22:46:29.519Z,9.85
2022-11-20T22:52:31.178Z,10.47
2022-11-20T22:58:33.494Z,9.90
2022-11-20T23:04:34.933Z,10.23
2022-11-20T23:10:36.432Z,9.75
2022-11-20T23:16:37.895Z,9.40
2022-11-20T23:22:39.445Z,9.97
2022-11-20T23:28:41.322Z,10.77
2022-11-20T23:34:42.818Z,10.37
2022-11-20T23:40:48.228Z,10.50
2022-11-20T23:46:49.819Z,10.90
2022-11-20T23:52:51.274Z,11.07
2022-11-20T23:58:52.772Z,10.63
